Time;durP1;ratioP1;P1;durP2;ratioP2;P2;SDS_P1;SDS_P2;PMS_P1;PMS_P2;Temp;Humidity;BMP_temperature;BMP_pressure;BME280_temperature;BME280_humidity;BME280_pressure;Samples;Min_cycle;Max_cycle;Signal;HPM_P1;HPM_P2
2022/07/11 00:00:52;;;;;;;5.57;1.90;;;15.20;99.90;;;;;;4957106;28;20078;-82
2022/07/11 00:03:18;;;;;;;5.22;1.95;;;15.10;99.90;;;;;;4956949;28;20145;-81
2022/07/11 00:05:43;;;;;;;3.42;1.80;;;15.30;99.90;;;;;;4956612;28;20078;-82
2022/07/11 00:08:09;;;;;;;4.57;2.10;;;15.10;1.00;;;;;;4959197;28;20038;-81
2022/07/11 00:10:35;;;;;;;2.92;2.00;;;15.10;1.00;;;;;;4945121;28;20526;-81
2022/07/11 00:13:00;;;;;;;2.72;1.77;;;15.20;1.00;;;;;;4943535;28;20192;-81
2022/07/11 00:15:26;;;;;;;4.82;2.00;;;15.20;1.00;;;;;;4938617;28;20038;-81
2022/07/11 00:17:52;;;;;;;5.57;2.50;;;15.20;58.90;;;;;;4960681;28;20494;-81
2022/07/11 00:20:17;;;;;;;6.45;2.55;;;15.10;99.90;;;;;;4957250;28;20477;-81
2022/07/11 00:22:45;;;;;;;5.68;2.60;;;15.10;99.90;;;;;;4941941;28;20045;-81
2022/07/11 00:25:11;;;;;;;7.50;3.40;;;15.20;99.90;;;;;;4959237;28;20124;-85
2022/07/11 00:27:37;;;;;;;8.35;2.80;;;15.20;99.90;;;;;;4943988;28;20062;-85
2022/07/11 00:30:03;;;;;;;5.65;2.58;;;15.20;99.90;;;;;;4957453;28;20428;-87
2022/07/11 00:32:28;;;;;;;7.07;3.08;;;15.20;99.90;;;;;;4942183;28;20457;-86
2022/07/11 00:34:54;;;;;;;6.15;2.80;;;15.20;99.90;;;;;;4945399;28;20031;-86
2022/07/11 00:37:19;;;;;;;7.88;3.40;;;15.20;99.90;;;;;;4959889;28;20042;-86
2022/07/11 00:39:45;;;;;;;4.68;2.97;;;15.20;99.90;;;;;;4942835;28;20113;-85
2022/07/11 00:42:11;;;;;;;5.97;3.17;;;15.20;99.90;;;;;;4943974;28;20498;-86
2022/07/11 00:44:36;;;;;;;5.15;3.28;;;15.30;99.90;;;;;;4943836;28;20070;-86
2022/07/11 00:47:03;;;;;;;5.82;3.30;;;15.20;99.90;;;;;;4944329;28;20047;-85
2022/07/11 00:49:29;;;;;;;7.78;3.53;;;15.40;99.90;;;;;;4941813;28;20042;-86
2022/07/11 00:51:55;;;;;;;8.80;3.90;;;15.30;99.90;;;;;;4957164;28;20507;-86
2022/07/11 00:54:22;;;;;;;6.63;3.65;;;15.20;99.90;;;;;;4942313;28;20491;-85
2022/07/11 00:56:48;;;;;;;4.97;3.42;;;15.30;99.90;;;;;;4958495;28;20034;-85
2022/07/11 00:59:17;;;;;;;5.85;3.65;;;15.30;99.90;;;;;;4961240;28;20526;-85
2022/07/11 01:01:44;;;;;;;7.13;4.28;;;15.30;99.90;;;;;;4975013;28;20082;-85
2022/07/11 01:04:10;;;;;;;8.45;3.95;;;15.30;99.90;;;;;;4955721;28;20451;-81
2022/07/11 01:06:35;;;;;;;5.88;3.65;;;15.40;99.90;;;;;;4943123;28;20065;-81
2022/07/11 01:09:01;;;;;;;4.55;3.70;;;15.40;99.90;;;;;;4943868;28;20387;-81
2022/07/11 01:11:27;;;;;;;5.18;3.20;;;15.30;99.90;;;;;;4942493;28;20042;-81
2022/07/11 01:13:53;;;;;;;6.82;3.60;;;15.40;99.90;;;;;;4941945;28;20039;-81
2022/07/11 01:16:23;;;;;;;4.95;3.55;;;15.30;99.90;;;;;;4940665;28;20077;-81
2022/07/11 01:18:54;;;;;;;8.25;4.25;;;15.30;99.90;;;;;;4941707;28;20051;-81
2022/07/11 01:21:26;;;;;;;5.00;3.20;;;15.40;99.90;;;;;;4943485;28;20225;-81
2022/07/11 01:23:55;;;;;;;6.25;3.20;;;15.30;99.90;;;;;;4943422;28;20035;-81
2022/07/11 01:26:22;;;;;;;8.07;3.47;;;15.40;99.90;;;;;;4942004;28;20038;-81
2022/07/11 01:28:49;;;;;;;6.55;3.67;;;15.40;99.90;;;;;;4939656;28;20505;-81
2022/07/11 01:31:15;;;;;;;5.63;3.35;;;15.50;99.90;;;;;;4941809;28;20042;-81
2022/07/11 01:33:41;;;;;;;4.82;3.40;;;15.40;99.90;;;;;;4939914;28;20122;-81
2022/07/11 01:36:07;;;;;;;8.77;3.80;;;15.50;99.90;;;;;;4939383;29;20161;-81
2022/07/11 01:38:33;;;;;;;5.35;3.75;;;15.50;99.90;;;;;;4959838;28;20043;-81
2022/07/11 01:40:59;;;;;;;5.32;3.67;;;15.40;99.90;;;;;;4944197;28;20047;-81
2022/07/11 01:43:25;;;;;;;7.55;3.70;;;15.50;99.90;;;;;;4942791;28;20035;-80
2022/07/11 01:45:52;;;;;;;9.00;3.50;;;15.40;99.90;;;;;;4959118;28;20064;-81
2022/07/11 01:48:18;;;;;;;4.72;3.40;;;15.50;99.90;;;;;;4938506;28;20055;-81
2022/07/11 01:50:44;;;;;;;8.63;3.50;;;15.50;99.90;;;;;;4956868;28;20042;-81
2022/07/11 01:53:10;;;;;;;5.32;3.42;;;15.40;99.90;;;;;;4939957;28;20317;-81
2022/07/11 01:55:35;;;;;;;7.25;3.75;;;15.50;99.90;;;;;;4942922;28;20130;-81
2022/07/11 01:58:01;;;;;;;5.57;3.80;;;15.50;99.90;;;;;;4942746;28;20113;-81
2022/07/11 02:00:27;;;;;;;8.98;3.50;;;15.50;99.90;;;;;;4941442;28;20502;-81
2022/07/11 02:02:53;;;;;;;4.18;3.40;;;15.50;99.90;;;;;;4956352;28;20051;-81
2022/07/11 02:05:18;;;;;;;6.40;3.72;;;15.50;99.90;;;;;;4960332;28;20034;-81
2022/07/11 02:10:29;;;;;;;7.47;3.60;;;15.60;99.90;;;;;;4958378;28;20057;-81
2022/07/11 02:12:58;;;;;;;6.45;3.30;;;15.50;99.90;;;;;;4952501;28;20135;-81
2022/07/11 02:15:28;;;;;;;7.78;4.20;;;15.50;99.90;;;;;;4940805;28;20043;-81
2022/07/11 02:17:57;;;;;;;7.45;3.70;;;15.40;99.90;;;;;;4952621;28;20680;-81
2022/07/11 02:20:24;;;;;;;7.88;3.60;;;15.50;99.90;;;;;;4957831;28;20470;-81
2022/07/11 02:22:50;;;;;;;7.70;3.85;;;15.50;99.90;;;;;;4936450;28;20116;-81
2022/07/11 02:25:16;;;;;;;5.68;3.80;;;15.50;99.90;;;;;;4943416;28;20042;-81
2022/07/11 02:27:42;;;;;;;7.97;4.07;;;15.50;99.90;;;;;;4958619;28;20038;-81
2022/07/11 02:30:08;;;;;;;8.00;3.88;;;15.50;99.90;;;;;;4936424;28;20043;-81
2022/07/11 02:32:37;;;;;;;8.02;3.72;;;15.60;99.90;;;;;;4958285;28;20038;-81
2022/07/11 02:35:04;;;;;;;6.07;3.75;;;15.50;1.00;;;;;;4941582;28;20097;-81
2022/07/11 02:37:31;;;;;;;5.60;4.00;;;15.50;1.00;;;;;;4958691;28;20035;-81
2022/07/11 02:39:57;;;;;;;9.10;4.03;;;15.60;1.00;;;;;;4941095;28;20550;-81
2022/07/11 02:42:22;;;;;;;9.07;3.90;;;15.50;1.00;;;;;;4957349;28;20394;-82
2022/07/11 02:44:48;;;;;;;4.97;3.72;;;15.50;1.00;;;;;;4941669;28;20038;-81
2022/07/11 02:47:14;;;;;;;6.05;4.18;;;15.60;1.00;;;;;;4941122;28;20184;-82
2022/07/11 02:49:40;;;;;;;6.40;4.18;;;15.50;1.00;;;;;;4942268;28;20125;-81
2022/07/11 02:52:06;;;;;;;6.13;4.00;;;15.60;1.00;;;;;;4956750;28;20433;-81
2022/07/11 02:54:32;;;;;;;8.63;4.13;;;15.50;1.00;;;;;;4938724;28;20031;-81
2022/07/11 02:56:58;;;;;;;7.47;4.35;;;15.60;1.00;;;;;;4939755;28;20046;-81
2022/07/11 02:59:24;;;;;;;7.13;4.05;;;15.60;1.00;;;;;;4941052;28;20571;-81
2022/07/11 03:01:50;;;;;;;9.05;4.43;;;15.70;1.00;;;;;;4940913;28;20047;-81
2022/07/11 03:04:16;;;;;;;6.40;4.10;;;15.60;1.00;;;;;;4957127;28;20058;-81
2022/07/11 03:06:42;;;;;;;6.00;3.78;;;15.60;1.00;;;;;;4953067;28;20593;-81
2022/07/11 03:09:08;;;;;;;8.98;4.50;;;15.70;1.00;;;;;;4943169;28;20039;-81
2022/07/11 03:11:34;;;;;;;6.32;4.47;;;15.70;1.00;;;;;;4956123;28;20279;-82
2022/07/11 03:14:00;;;;;;;8.43;4.18;;;15.60;1.00;;;;;;4955838;28;20037;-81
2022/07/11 03:16:27;;;;;;;8.77;4.30;;;15.70;1.00;;;;;;4957491;28;20526;-81
2022/07/11 03:18:53;;;;;;;5.50;4.30;;;15.70;1.00;;;;;;4942552;28;20572;-81
2022/07/11 03:21:19;;;;;;;6.65;4.05;;;15.60;1.00;;;;;;4936459;28;20038;-82
2022/07/11 03:23:45;;;;;;;6.07;4.32;;;15.70;99.90;;;;;;4940929;28;20047;-82
2022/07/11 03:26:11;;;;;;;9.68;4.13;;;15.70;1.00;;;;;;4957126;28;20051;-81
2022/07/11 03:28:37;;;;;;;5.93;3.95;;;15.70;1.00;;;;;;4956166;28;20047;-81
2022/07/11 03:31:03;;;;;;;4.72;3.90;;;15.70;99.90;;;;;;4938484;28;20035;-82
2022/07/11 03:33:28;;;;;;;6.05;4.45;;;15.70;99.90;;;;;;4937331;28;20043;-81
2022/07/11 03:35:54;;;;;;;5.97;3.67;;;15.70;99.90;;;;;;4955416;28;20348;-82
2022/07/11 03:38:21;;;;;;;7.82;4.30;;;15.70;99.90;;;;;;4955154;28;20062;-82
2022/07/11 03:40:47;;;;;;;6.82;3.80;;;15.70;99.90;;;;;;4941441;28;20545;-82
2022/07/11 03:43:15;;;;;;;9.70;3.95;;;15.70;99.90;;;;;;4958260;28;20058;-81
2022/07/11 03:45:41;;;;;;;5.53;3.55;;;15.60;99.90;;;;;;4955695;28;20046;-81
2022/07/11 03:48:07;;;;;;;7.63;3.97;;;15.70;99.90;;;;;;4941275;28;20512;-80
2022/07/11 03:50:36;;;;;;;7.53;3.92;;;15.70;99.90;;;;;;4959364;28;20038;-80
2022/07/11 03:53:02;;;;;;;8.50;3.97;;;15.80;99.90;;;;;;4958548;28;20145;-82
2022/07/11 03:55:28;;;;;;;6.88;4.50;;;15.70;99.90;;;;;;4961031;28;20038;-81
2022/07/11 03:57:55;;;;;;;7.25;4.45;;;15.70;99.90;;;;;;4961818;28;20089;-82
2022/07/11 04:00:21;;;;;;;7.45;4.60;;;15.70;99.90;;;;;;4959281;28;20142;-82
2022/07/11 04:02:47;;;;;;;8.70;4.72;;;15.70;99.90;;;;;;4958563;28;20203;-82
2022/07/11 04:05:13;;;;;;;9.52;4.70;;;15.70;1.00;;;;;;4944518;28;20030;-81
2022/07/11 04:07:40;;;;;;;8.27;4.63;;;15.70;1.00;;;;;;4944423;28;20062;-82
2022/07/11 04:10:06;;;;;;;8.25;4.15;;;15.80;1.00;;;;;;4945088;28;20047;-82
2022/07/11 04:12:32;;;;;;;3.72;2.80;;;15.80;1.00;;;;;;4944816;28;20209;-82
2022/07/11 04:15:01;;;;;;;5.97;3.90;;;15.70;1.00;;;;;;4942188;28;20558;-82
2022/07/11 04:17:27;;;;;;;5.65;3.53;;;15.80;1.00;;;;;;4945092;28;20823;-81
2022/07/11 04:19:53;;;;;;;5.93;3.50;;;15.80;1.00;;;;;;4958805;28;20041;-81
2022/07/11 04:22:19;;;;;;;5.15;3.53;;;15.70;1.00;;;;;;4960068;28;20431;-81
2022/07/11 04:24:47;;;;;;;5.05;2.67;;;15.80;1.00;;;;;;4944196;28;20348;-81
2022/07/11 04:27:13;;;;;;;4.35;2.60;;;15.80;1.00;;;;;;4949666;28;20053;-81
2022/07/11 04:29:41;;;;;;;5.05;2.30;;;15.80;1.00;;;;;;4944795;28;20042;-81
2022/07/11 04:32:07;;;;;;;4.38;2.63;;;15.80;1.00;;;;;;4942849;28;20108;-82
2022/07/11 04:34:33;;;;;;;5.40;2.38;;;15.80;1.00;;;;;;4935453;28;20043;-81
2022/07/11 04:36:59;;;;;;;3.50;2.10;;;15.90;1.00;;;;;;4958561;28;20547;-81
2022/07/11 04:39:25;;;;;;;5.22;2.35;;;16.00;1.00;;;;;;4944893;28;20034;-81
2022/07/11 04:41:51;;;;;;;3.30;1.80;;;15.90;99.90;;;;;;4943616;28;20054;-81
2022/07/11 04:44:16;;;;;;;6.22;2.05;;;16.00;99.90;;;;;;4955478;28;20431;-81
2022/07/11 04:46:42;;;;;;;6.13;1.90;;;16.00;99.90;;;;;;4961249;28;20049;-81
2022/07/11 04:49:08;;;;;;;5.18;1.70;;;16.00;99.90;;;;;;4942304;28;20089;-81
2022/07/11 04:51:35;;;;;;;4.18;1.80;;;16.10;99.90;;;;;;4947370;28;20086;-81
2022/07/11 04:54:01;;;;;;;3.55;1.67;;;15.90;99.90;;;;;;4943826;28;20310;-81
2022/07/11 04:56:27;;;;;;;4.30;1.80;;;15.90;99.90;;;;;;4944604;28;20122;-81
2022/07/11 04:58:52;;;;;;;3.20;1.58;;;16.00;99.90;;;;;;4942208;28;20062;-81
2022/07/11 05:01:19;;;;;;;3.55;1.70;;;16.00;99.90;;;;;;4957332;28;20142;-81
2022/07/11 05:03:45;;;;;;;4.03;1.80;;;16.00;99.90;;;;;;4938839;28;20062;-81
2022/07/11 05:06:11;;;;;;;3.58;1.73;;;16.00;99.90;;;;;;4943541;28;20042;-82
2022/07/11 05:08:36;;;;;;;5.45;1.88;;;16.00;99.90;;;;;;4945528;28;20625;-81
2022/07/11 05:11:03;;;;;;;2.72;1.45;;;16.10;99.90;;;;;;4961534;28;20047;-81
2022/07/11 05:13:29;;;;;;;2.40;1.50;;;16.10;99.90;;;;;;4943954;28;20045;-81
2022/07/11 05:15:54;;;;;;;4.53;1.50;;;16.10;99.90;;;;;;4951747;28;20047;-81
2022/07/11 05:18:20;;;;;;;4.85;1.40;;;16.20;99.90;;;;;;4944790;28;20449;-81
2022/07/11 05:20:48;;;;;;;4.20;1.30;;;16.20;99.90;;;;;;4944525;28;20471;-81
2022/07/11 05:23:15;;;;;;;1.88;1.20;;;16.40;99.90;;;;;;4950304;28;20134;-81
2022/07/11 05:25:40;;;;;;;3.35;1.30;;;16.40;99.90;;;;;;4938868;28;20038;-80
2022/07/11 05:28:06;;;;;;;2.67;1.38;;;16.50;99.90;;;;;;4956118;28;20479;-81
2022/07/11 05:30:32;;;;;;;2.90;1.20;;;16.50;99.90;;;;;;4941839;28;20549;-81
2022/07/11 05:32:58;;;;;;;2.67;1.40;;;16.40;1.00;;;;;;4940950;28;20045;-81
2022/07/11 05:35:25;;;;;;;3.58;1.00;;;16.40;94.50;;;;;;4957700;28;20051;-85
2022/07/11 05:37:50;;;;;;;3.00;1.33;;;16.30;39.60;;;;;;4942560;28;20201;-85
2022/07/11 05:40:16;;;;;;;3.05;1.20;;;16.40;52.50;;;;;;4941448;28;20030;-85
2022/07/11 05:42:42;;;;;;;3.03;1.30;;;16.30;65.00;;;;;;4943398;28;20447;-85
2022/07/11 05:45:09;;;;;;;4.55;1.25;;;16.50;90.50;;;;;;4941417;28;20056;-85
2022/07/11 05:47:35;;;;;;;3.22;1.23;;;16.40;85.00;;;;;;4938189;28;20804;-86
2022/07/11 05:50:00;;;;;;;2.72;1.00;;;16.40;13.70;;;;;;4944837;28;20065;-85
2022/07/11 05:52:26;;;;;;;1.30;1.02;;;16.60;99.90;;;;;;4940662;28;20058;-85
2022/07/11 05:54:51;;;;;;;2.08;0.95;;;16.60;1.00;;;;;;4944365;28;20031;-85
2022/07/11 05:57:20;;;;;;;1.52;0.90;;;16.50;1.00;;;;;;4944635;28;20110;-85
2022/07/11 05:59:46;;;;;;;2.63;0.98;;;16.50;99.90;;;;;;4943656;28;20043;-85
2022/07/11 06:02:12;;;;;;;2.28;1.10;;;16.40;99.90;;;;;;4950556;28;20467;-85
2022/07/11 06:04:38;;;;;;;2.88;1.13;;;16.50;1.00;;;;;;4956655;28;20270;-85
2022/07/11 06:07:05;;;;;;;2.22;0.90;;;16.40;1.00;;;;;;4940990;28;20604;-85
2022/07/11 06:09:30;;;;;;;1.38;1.00;;;16.30;1.00;;;;;;4938925;28;20054;-85
2022/07/11 06:11:56;;;;;;;5.70;1.23;;;16.40;1.00;;;;;;4939850;28;20064;-85
2022/07/11 06:14:23;;;;;;;3.95;1.20;;;16.50;62.90;;;;;;4954552;28;20566;-85
2022/07/11 06:16:49;;;;;;;2.70;1.00;;;16.50;58.60;;;;;;4935672;28;20043;-85
2022/07/11 06:19:16;;;;;;;2.15;1.20;;;16.40;1.00;;;;;;4937852;28;20451;-85
2022/07/11 06:21:42;;;;;;;4.20;1.27;;;16.50;1.00;;;;;;4940808;28;20125;-85
2022/07/11 06:24:08;;;;;;;4.57;1.25;;;16.60;1.00;;;;;;4956855;28;20065;-81
2022/07/11 06:26:33;;;;;;;2.92;1.23;;;16.60;1.00;;;;;;4938312;28;20051;-81
2022/07/11 06:28:59;;;;;;;5.28;1.23;;;16.70;1.00;;;;;;4942038;28;20034;-81
2022/07/11 06:31:27;;;;;;;3.25;1.05;;;16.70;99.90;;;;;;4942544;28;20529;-81
2022/07/11 06:33:57;;;;;;;2.72;1.10;;;16.70;99.90;;;;;;4941145;28;20043;-81
2022/07/11 06:36:24;;;;;;;3.35;1.15;;;16.70;1.00;;;;;;4940159;28;20556;-80
2022/07/11 06:38:50;;;;;;;3.05;1.42;;;16.60;1.00;;;;;;4957581;28;20077;-81
2022/07/11 06:41:16;;;;;;;2.72;1.10;;;16.90;1.00;;;;;;4958179;28;20034;-80
2022/07/11 06:43:42;;;;;;;5.70;1.10;;;17.10;1.00;;;;;;4945121;28;20085;-80
2022/07/11 06:46:07;;;;;;;5.13;1.13;;;17.30;99.90;;;;;;4960244;28;20046;-81
2022/07/11 06:48:33;;;;;;;3.30;1.10;;;17.20;99.90;;;;;;4961616;28;20046;-81
2022/07/11 06:50:59;;;;;;;2.53;1.20;;;17.10;99.90;;;;;;4946284;28;20042;-81
2022/07/11 06:53:24;;;;;;;3.10;1.13;;;17.20;99.90;;;;;;4941760;28;20255;-81
2022/07/11 06:55:50;;;;;;;1.42;0.68;;;17.20;99.90;;;;;;4955859;28;20554;-81
2022/07/11 06:58:31;;;;;;;2.92;1.10;;;17.20;1.00;;;;;;4956146;28;20475;-81
2022/07/11 07:01:05;;;;;;;2.78;1.00;;;17.40;99.90;;;;;;4938293;28;20065;-81
2022/07/11 07:03:33;;;;;;;1.70;0.68;;;17.50;74.70;;;;;;4953721;28;20054;-82
2022/07/11 07:05:59;;;;;;;3.97;0.90;;;17.30;1.00;;;;;;4974316;28;20049;-81
2022/07/11 07:08:29;;;;;;;3.05;0.90;;;17.30;1.00;;;;;;4941761;28;20109;-81
2022/07/11 07:10:55;;;;;;;2.28;0.90;;;17.20;1.00;;;;;;4952298;28;20047;-81
2022/07/11 07:13:25;;;;;;;1.58;0.70;;;17.20;80.40;;;;;;4958109;28;20533;-81
2022/07/11 07:15:54;;;;;;;2.53;0.80;;;17.20;54.80;;;;;;4939190;28;20038;-81
2022/07/11 07:18:20;;;;;;;1.65;0.60;;;17.20;1.70;;;;;;4941627;28;20038;-81
2022/07/11 07:20:47;;;;;;;1.20;0.50;;;17.30;99.90;;;;;;4958005;28;20414;-81
2022/07/11 07:23:13;;;;;;;1.20;0.60;;;17.10;99.90;;;;;;4955631;28;20047;-81
2022/07/11 07:25:40;;;;;;;1.55;0.60;;;17.30;99.90;;;;;;4956003;28;20480;-81
2022/07/11 07:28:06;;;;;;;2.63;0.60;;;17.50;99.90;;;;;;4954789;28;20134;-80
2022/07/11 07:30:32;;;;;;;0.60;0.60;;;17.50;99.90;;;;;;4936197;28;20320;-81
2022/07/11 07:33:02;;;;;;;1.10;0.45;;;17.50;99.90;;;;;;4944058;28;20074;-81
2022/07/11 07:35:28;;;;;;;1.88;0.60;;;17.50;99.90;;;;;;4960083;28;20577;-81
2022/07/11 07:37:54;;;;;;;1.20;0.52;;;17.40;99.90;;;;;;4937104;28;20182;-81
2022/07/11 07:40:21;;;;;;;3.42;0.70;;;17.50;58.20;;;;;;4941209;28;20039;-81
2022/07/11 07:42:47;;;;;;;2.03;0.60;;;17.50;99.90;;;;;;4945266;28;20574;-81
2022/07/11 07:45:13;;;;;;;3.17;0.90;;;17.60;99.90;;;;;;4943737;28;20360;-81
2022/07/11 07:47:39;;;;;;;1.08;0.77;;;17.70;48.00;;;;;;4948681;28;20443;-81
2022/07/11 07:50:05;;;;;;;1.13;0.95;;;17.60;69.30;;;;;;4934821;28;20119;-81
2022/07/11 07:52:32;;;;;;;1.52;0.90;;;17.90;1.00;;;;;;4939420;28;20069;-82
2022/07/11 07:54:58;;;;;;;0.88;0.63;;;17.70;99.90;;;;;;4942512;28;20185;-81
2022/07/11 07:57:24;;;;;;;2.25;0.70;;;17.80;99.90;;;;;;4942139;28;20564;-81
2022/07/11 07:59:50;;;;;;;1.35;0.88;;;18.10;99.90;;;;;;4957401;28;20360;-81
2022/07/11 08:02:15;;;;;;;1.48;0.82;;;18.20;99.90;;;;;;4960286;28;20063;-81
2022/07/11 08:04:41;;;;;;;2.65;0.80;;;18.00;99.90;;;;;;4952234;28;20042;-80
2022/07/11 08:07:07;;;;;;;3.30;0.82;;;18.00;99.90;;;;;;4939198;28;20140;-81
2022/07/11 08:09:33;;;;;;;1.10;0.60;;;17.80;99.90;;;;;;4942972;28;20043;-80
2022/07/11 08:11:59;;;;;;;1.27;0.65;;;17.90;99.90;;;;;;4954671;28;20136;-81
2022/07/11 08:14:24;;;;;;;1.02;0.50;;;18.00;99.90;;;;;;4936719;28;20043;-81
2022/07/11 08:16:54;;;;;;;1.02;0.60;;;18.20;99.90;;;;;;4935718;28;20046;-82
2022/07/11 08:19:19;;;;;;;0.88;0.57;;;18.30;99.90;;;;;;4951688;28;20050;-82
2022/07/11 08:21:45;;;;;;;0.68;0.68;;;18.30;99.90;;;;;;4939072;28;20464;-81
2022/07/11 08:24:10;;;;;;;1.33;0.63;;;18.40;99.90;;;;;;4943125;28;20559;-81
2022/07/11 08:26:36;;;;;;;1.50;0.40;;;18.40;99.90;;;;;;4940776;28;20514;-81
2022/07/11 08:29:03;;;;;;;0.98;0.80;;;18.30;99.90;;;;;;4956102;28;20538;-81
2022/07/11 08:31:28;;;;;;;0.70;0.70;;;18.40;99.90;;;;;;4957373;28;20040;-81
2022/07/11 08:33:58;;;;;;;0.95;0.70;;;18.30;99.90;;;;;;4957086;28;20089;-81
2022/07/11 08:36:23;;;;;;;2.85;0.90;;;18.00;99.90;;;;;;4958077;28;20045;-81
2022/07/11 08:38:49;;;;;;;0.40;0.32;;;17.80;99.90;;;;;;4966662;28;20422;-81
2022/07/11 08:41:16;;;;;;;1.05;0.30;;;17.60;99.90;;;;;;4958172;28;20530;-81
2022/07/11 08:43:43;;;;;;;0.88;0.50;;;17.50;99.90;;;;;;4961823;28;20132;-81
2022/07/11 08:46:10;;;;;;;1.55;0.40;;;17.60;1.00;;;;;;4959956;28;20122;-81
2022/07/11 08:48:40;;;;;;;0.32;0.30;;;17.60;1.00;;;;;;4955635;28;20139;-81
2022/07/11 08:51:07;;;;;;;0.38;0.30;;;17.70;1.00;;;;;;4940721;28;20094;-81
2022/07/11 08:53:43;;;;;;;0.70;0.35;;;17.60;99.90;;;;;;4953668;28;20141;-81
2022/07/11 08:56:14;;;;;;;2.65;0.30;;;17.90;99.90;;;;;;4962372;28;20092;-81
2022/07/11 08:58:46;;;;;;;0.50;0.20;;;18.00;99.90;;;;;;4944064;28;20560;-81
2022/07/11 09:01:16;;;;;;;0.40;0.10;;;18.30;99.90;;;;;;4958598;28;20514;-82
2022/07/11 09:03:42;;;;;;;0.52;0.15;;;19.10;99.90;;;;;;4944236;28;20129;-81
2022/07/11 09:06:08;;;;;;;0.13;0.13;;;19.30;99.90;;;;;;4943881;28;20055;-82
2022/07/11 09:08:35;;;;;;;0.13;0.13;;;19.40;99.90;;;;;;4941604;28;20047;-81
2022/07/11 09:11:01;;;;;;;0.80;0.20;;;18.90;1.00;;;;;;4943132;28;20050;-81
2022/07/11 09:13:30;;;;;;;1.63;0.40;;;18.70;99.90;;;;;;4974668;28;20575;-81
2022/07/11 09:16:05;;;;;;;0.40;0.20;;;18.20;96.30;;;;;;4959186;28;20041;-81
2022/07/11 09:18:38;;;;;;;1.38;0.30;;;18.10;99.90;;;;;;4933621;28;20615;-82
2022/07/11 09:26:46;;;;;;;1.48;0.47;;;18.00;99.90;;;;;;4951031;28;20047;-81
2022/07/11 09:29:21;;;;;;;1.67;0.30;;;18.10;99.90;;;;;;4950766;28;20042;-80
2022/07/11 09:31:48;;;;;;;0.85;0.30;;;18.30;99.90;;;;;;4960164;28;20250;-81
2022/07/11 09:34:15;;;;;;;0.50;0.40;;;18.20;99.90;;;;;;4935919;28;20487;-81
2022/07/11 09:36:44;;;;;;;0.68;0.45;;;18.00;99.90;;;;;;4945080;28;20402;-81
2022/07/11 09:39:18;;;;;;;0.63;0.30;;;18.00;52.30;;;;;;4949914;28;20669;-81
2022/07/11 09:41:46;;;;;;;1.40;0.40;;;18.20;99.90;;;;;;4956681;28;20108;-80
2022/07/11 09:44:19;;;;;;;0.50;0.35;;;18.30;33.90;;;;;;4937010;28;20668;-82
2022/07/11 09:46:49;;;;;;;0.80;0.30;;;18.50;99.90;;;;;;4934547;28;20593;-81
2022/07/11 09:49:16;;;;;;;1.23;0.20;;;18.60;1.00;;;;;;4957356;28;20516;-81
2022/07/11 09:51:42;;;;;;;0.35;0.20;;;18.60;1.00;;;;;;4955255;28;20067;-81
2022/07/11 09:54:09;;;;;;;0.88;0.25;;;18.70;1.00;;;;;;4939628;28;20431;-82
2022/07/11 09:56:43;;;;;;;0.73;0.17;;;18.60;26.10;;;;;;4957433;28;20050;-81
2022/07/11 09:59:11;;;;;;;1.70;0.30;;;18.40;79.80;;;;;;4954641;28;20075;-81
2022/07/11 10:01:38;;;;;;;1.17;0.20;;;18.30;99.90;;;;;;4965161;28;20710;-81
2022/07/11 10:04:08;;;;;;;0.57;0.30;;;18.30;99.90;;;;;;4942021;28;20042;-81
2022/07/11 10:06:36;;;;;;;0.77;0.20;;;18.20;51.00;;;;;;4941695;28;20148;-81
2022/07/11 10:09:04;;;;;;;0.47;0.30;;;18.30;99.90;;;;;;4951267;28;20074;-81
2022/07/11 10:11:34;;;;;;;10.07;2.67;;;18.20;99.90;;;;;;4941185;28;20461;-81
2022/07/11 10:14:01;;;;;;;6.38;1.27;;;18.20;99.90;;;;;;4937519;28;20039;-81
2022/07/11 10:16:42;;;;;;;0.25;0.20;;;18.30;53.00;;;;;;4939873;28;20051;-81
2022/07/11 10:19:22;;;;;;;0.82;0.40;;;18.20;99.90;;;;;;4935897;28;20054;-81
2022/07/11 10:22:03;;;;;;;0.50;0.20;;;18.20;99.90;;;;;;4936752;28;20471;-81
2022/07/11 10:25:05;;;;;;;0.68;0.30;;;18.20;99.90;;;;;;4950357;28;20046;-82
2022/07/11 10:27:49;;;;;;;0.30;0.30;;;18.00;99.90;;;;;;4940105;28;20107;-85
2022/07/11 10:30:48;;;;;;;1.10;0.35;;;18.10;99.90;;;;;;4955613;28;20449;-85
2022/07/11 10:33:15;;;;;;;0.95;0.40;;;18.10;99.90;;;;;;4941296;28;20058;-85
2022/07/11 10:35:54;;;;;;;0.77;0.40;;;18.20;99.90;;;;;;4956543;28;20049;-85
2022/07/11 10:38:25;;;;;;;1.17;0.40;;;18.40;99.90;;;;;;4942765;28;20039;-86
2022/07/11 10:40:55;;;;;;;0.63;0.30;;;18.60;99.90;;;;;;4957315;28;20046;-85
2022/07/11 10:43:41;;;;;;;1.35;0.50;;;18.80;99.90;;;;;;4941324;28;20054;-85
2022/07/11 10:46:09;;;;;;;0.22;0.22;;;18.90;1.00;;;;;;4947093;28;20047;-86
2022/07/11 10:49:05;;;;;;;0.80;0.35;;;19.00;1.30;;;;;;4932890;28;20089;-86
2022/07/11 10:51:59;;;;;;;0.90;0.40;;;18.90;1.00;;;;;;4940737;28;20045;-86
2022/07/11 10:54:48;;;;;;;0.65;0.47;;;18.90;1.00;;;;;;4956795;28;20062;-85
2022/07/11 10:57:33;;;;;;;0.38;0.38;;;18.90;38.70;;;;;;4951293;28;20069;-85
2022/07/11 11:00:06;;;;;;;0.82;0.30;;;18.80;6.40;;;;;;4948959;28;20042;-86
2022/07/11 11:03:04;;;;;;;1.20;0.47;;;18.70;1.00;;;;;;4951619;28;20258;-85
2022/07/11 11:05:48;;;;;;;0.77;0.40;;;18.80;1.00;;;;;;4948743;28;20081;-86
2022/07/11 11:08:32;;;;;;;0.50;0.35;;;19.10;1.00;;;;;;4938210;28;20281;-86
2022/07/11 11:11:00;;;;;;;0.52;0.30;;;19.00;1.00;;;;;;4940329;28;20070;-85
2022/07/11 11:13:29;;;;;;;1.05;0.32;;;19.40;1.00;;;;;;4949014;28;20047;-85
2022/07/11 11:16:00;;;;;;;1.45;0.28;;;19.10;1.00;;;;;;4953029;28;20050;-85
2022/07/11 11:18:25;;;;;;;1.95;0.57;;;19.40;50.00;;;;;;4954750;28;20382;-85
2022/07/11 11:23:27;;;;;;;;;;;18.80;1.00;;;;;;4954294;28;20105;-85
2022/07/11 11:25:53;;;;;;;2.40;0.80;;;18.80;60.20;;;;;;4959574;28;19989;-86
2022/07/11 11:28:22;;;;;;;0.95;0.60;;;19.00;99.90;;;;;;4941972;28;20058;-85
2022/07/11 11:30:55;;;;;;;1.42;0.50;;;18.80;89.70;;;;;;4936266;28;20054;-86
2022/07/11 11:33:21;;;;;;;2.35;0.55;;;18.90;99.90;;;;;;4952905;28;20546;-86
2022/07/11 11:36:04;;;;;;;2.05;1.30;;;18.80;95.70;;;;;;4944405;28;20051;-86
2022/07/11 11:38:34;;;;;;;1.15;1.00;;;18.90;62.80;;;;;;4944573;28;20031;-85
2022/07/11 11:41:00;;;;;;;1.65;0.70;;;18.80;99.90;;;;;;4959848;28;20486;-86
2022/07/11 11:43:27;;;;;;;2.47;0.80;;;18.50;96.00;;;;;;4943071;28;20041;-86
2022/07/11 11:45:53;;;;;;;1.73;1.42;;;18.80;90.00;;;;;;4948564;28;20090;-86
2022/07/11 11:48:46;;;;;;;2.00;1.00;;;18.70;8.20;;;;;;4954452;28;20068;-86
2022/07/11 11:51:18;;;;;;;1.80;0.90;;;18.80;1.00;;;;;;4952703;28;20316;-86
2022/07/11 11:53:44;;;;;;;1.30;1.00;;;18.80;99.90;;;;;;4941815;28;20039;-86
2022/07/11 11:56:29;;;;;;;1.23;0.80;;;19.10;55.50;;;;;;4943148;28;20043;-86
2022/07/11 11:59:07;;;;;;;1.40;0.80;;;19.10;94.70;;;;;;4954742;28;20039;-86
2022/07/11 12:01:37;;;;;;;0.55;0.47;;;19.00;1.00;;;;;;4944447;28;20059;-86
2022/07/11 12:04:11;;;;;;;1.23;0.70;;;19.10;1.00;;;;;;4943601;28;20364;-86
2022/07/11 12:06:49;;;;;;;2.95;0.60;;;19.20;71.80;;;;;;4958011;28;20145;-87
2022/07/11 12:09:17;;;;;;;0.50;0.50;;;19.50;1.00;;;;;;4937192;28;20125;-86
2022/07/11 12:11:45;;;;;;;0.88;0.60;;;19.50;1.00;;;;;;4972954;28;20102;-86
2022/07/11 12:14:12;;;;;;;0.50;0.50;;;19.20;1.00;;;;;;4940411;28;20093;-86
2022/07/11 12:16:49;;;;;;;1.02;0.70;;;19.20;1.00;;;;;;4950147;28;20047;-87
2022/07/11 12:19:23;;;;;;;1.13;0.85;;;19.20;1.00;;;;;;4939129;28;20039;-86
2022/07/11 12:21:54;;;;;;;0.60;0.60;;;19.20;1.00;;;;;;4942265;28;20050;-86
2022/07/11 12:24:26;;;;;;;1.85;0.73;;;19.10;1.00;;;;;;4946428;28;20038;-85
2022/07/11 12:26:52;;;;;;;1.13;0.60;;;19.20;1.00;;;;;;4948389;28;20476;-86
2022/07/11 12:29:25;;;;;;;1.15;0.70;;;19.40;1.00;;;;;;4944993;28;20038;-86
2022/07/11 12:31:55;;;;;;;2.05;1.00;;;19.40;1.00;;;;;;4954369;28;20403;-85
2022/07/11 12:34:27;;;;;;;1.10;1.00;;;19.10;29.20;;;;;;4939496;28;20038;-85
2022/07/11 12:37:02;;;;;;;2.17;1.20;;;19.00;1.00;;;;;;4943259;28;20379;-86
2022/07/11 12:39:31;;;;;;;2.67;1.40;;;19.00;99.90;;;;;;4943481;28;20121;-86
2022/07/11 12:41:59;;;;;;;2.15;1.48;;;18.90;68.20;;;;;;4944608;28;20041;-86
2022/07/11 12:47:25;;;;;;;2.13;1.60;;;18.80;13.30;;;;;;4961177;28;20050;-86
2022/07/11 12:49:51;;;;;;;2.03;1.23;;;18.90;18.10;;;;;;4959763;28;20127;-82
2022/07/11 12:52:17;;;;;;;1.38;1.20;;;19.00;32.80;;;;;;4954046;28;20058;-81
2022/07/11 12:54:44;;;;;;;2.25;1.10;;;19.30;1.00;;;;;;4946174;28;20387;-82
2022/07/11 12:57:15;;;;;;;1.65;1.00;;;19.50;1.00;;;;;;4945488;28;20034;-82
2022/07/11 12:59:40;;;;;;;2.25;0.90;;;19.50;1.00;;;;;;4951732;28;20038;-82
2022/07/11 13:02:09;;;;;;;1.30;0.90;;;19.50;1.00;;;;;;4947215;28;20058;-82
2022/07/11 13:04:50;;;;;;;1.02;0.80;;;19.30;1.00;;;;;;4937694;28;20058;-81
2022/07/11 13:10:04;;;;;;;0.50;0.50;;;19.20;1.00;;;;;;4961829;28;20039;-82
2022/07/11 13:12:29;;;;;;;0.60;0.60;;;19.30;1.00;;;;;;4943933;28;20051;-81